Stations météo

Publicité
Chateau Chinon, France (7270): Température de l'air & dewpoint: 06.12.2018 02:00:00 - 12.12.2018 02:00:00 (CET)Chateau Chinon, France (7270): Vitesse du vent & gusts: 06.12.2018 02:00:00 - 12.12.2018 02:00:00 (CET)Chateau Chinon, France (7270): Direction du vent: 06.12.2018 02:00:00 - 12.12.2018 02:00:00 (CET)Chateau Chinon, France (7270): Quantités de précipitations: 06.12.2018 02:00:00 - 12.12.2018 02:00:00 (CET)
Date & Time tt [°C] td [°C] ff [km/h] ff [knt] fx [km/h] fx [knt] dd rr [mm]
12.12.2018 02:00:00 - - - - - - - -
12.12.2018 01:00:00 -2,1 -2,4 5 3 11 6 E -
12.12.2018 00:00:00 -1,4 -1,5 8 4 11 6 E 0,0
11.12.2018 23:00:00 -1,1 -1,4 5 3 9 5 E 0,0
11.12.2018 22:00:00 -0,6 -1,0 8 4 9 5 E 0,0
11.12.2018 21:00:00 -0,5 -1,1 4 2 13 7 E 0,0
11.12.2018 20:00:00 -0,2 -1,0 5 3 15 8 E 0,0
11.12.2018 19:00:00 -0,3 -1,3 4 2 8 4 E -
11.12.2018 18:00:00 0,2 -0,8 4 2 9 5 E 0,0
11.12.2018 17:00:00 1,3 -1,4 0 0 13 7 N 0,0
11.12.2018 16:00:00 3,4 0,3 2 1 13 7 E 0,0
11.12.2018 15:00:00 4,6 2,1 4 2 11 6 ENE 0,0
11.12.2018 14:00:00 4,5 1,2 4 2 8 4 NNE 0,0
11.12.2018 13:00:00 4,2 1,2 2 1 11 6 N -
11.12.2018 12:00:00 5,6 2,2 2 1 13 7 E 0,0
11.12.2018 11:00:00 4,2 2,4 2 1 8 4 E 0,0
11.12.2018 10:00:00 2,5 2,4 4 2 8 4 E 0,0
11.12.2018 09:00:00 1,1 1,1 4 2 8 4 E 0,0
11.12.2018 08:00:00 1,0 1,0 4 2 5 3 ESE 0,0
11.12.2018 07:00:00 1,6 1,5 4 2 9 5 E -
11.12.2018 06:00:00 1,9 1,8 5 3 15 8 E 0,0
11.12.2018 05:00:00 2,6 2,5 4 2 18 10 NNE 0,0
11.12.2018 04:00:00 2,6 2,5 5 3 16 9 NNW 0,0
11.12.2018 03:00:00 2,9 2,8 5 3 18 10 NNW 0,0
11.12.2018 02:00:00 3,0 2,9 4 2 16 9 NW 0,0
11.12.2018 01:00:00 3,2 3,1 5 3 16 9 NW -
11.12.2018 00:00:00 3,1 3,0 4 2 22 12 WNW 0,4
10.12.2018 23:00:00 3,2 3,1 5 3 16 9 WNW 0,0
10.12.2018 22:00:00 3,2 2,9 4 2 9 5 W 0,0
10.12.2018 21:00:00 3,3 3,0 4 2 11 6 WNW 0,0
10.12.2018 20:00:00 3,2 2,9 4 2 11 6 WNW 0,0
10.12.2018 19:00:00 3,3 3,0 4 2 13 7 WNW -
10.12.2018 18:00:00 3,5 3,2 4 2 13 7 W 0,0
10.12.2018 17:00:00 3,9 3,5 4 2 18 10 W 0,0
10.12.2018 16:00:00 4,9 4,5 4 2 18 10 NW 0,0
10.12.2018 15:00:00 4,6 4,5 4 2 18 10 WNW 0,0
10.12.2018 14:00:00 4,9 4,8 4 2 16 9 WNW 0,0
10.12.2018 13:00:00 4,6 4,5 4 2 26 14 WNW -
10.12.2018 12:00:00 4,7 4,6 4 2 18 10 WNW 0,0
10.12.2018 11:00:00 4,7 4,6 5 3 29 16 WNW 0,2
10.12.2018 10:00:00 4,5 4,4 4 2 22 12 WNW 0,4
10.12.2018 09:00:00 4,4 4,3 4 2 22 12 WNW 0,2
10.12.2018 08:00:00 4,4 4,3 4 2 22 12 WNW 0,0
10.12.2018 07:00:00 4,5 4,4 5 3 21 11 WNW -
10.12.2018 06:00:00 4,5 4,4 5 3 22 12 WNW 0,0
10.12.2018 05:00:00 4,6 4,5 5 3 26 14 WNW 0,0
10.12.2018 04:00:00 4,7 4,6 5 3 16 9 WNW 0,0
10.12.2018 03:00:00 4,7 4,6 4 2 18 10 WNW 0,0
10.12.2018 02:00:00 4,4 4,3 5 3 24 13 WNW 1,0
10.12.2018 01:00:00 4,3 4,2 5 3 29 16 WNW -
10.12.2018 00:00:00 5,2 5,1 8 4 31 17 WNW 0,0
09.12.2018 23:00:00 5,6 5,3 5 3 31 17 WNW 0,0
09.12.2018 22:00:00 5,7 5,4 8 4 26 14 W 0,4
09.12.2018 21:00:00 5,8 5,5 5 3 28 15 WNW 0,2
09.12.2018 20:00:00 5,4 5,1 8 4 29 16 WNW 1,0
09.12.2018 19:00:00 5,7 5,4 5 3 29 16 WNW -
09.12.2018 18:00:00 5,9 5,5 8 4 34 18 WNW 1,0
09.12.2018 17:00:00 6,0 5,3 8 4 39 21 NW 0,0
09.12.2018 16:00:00 5,9 5,2 8 4 34 18 NW 0,2
09.12.2018 15:00:00 5,7 5,0 8 4 42 23 NW 0,0
09.12.2018 14:00:00 5,8 4,4 8 4 44 24 NNW 0,0
09.12.2018 13:00:00 5,6 4,2 8 4 39 21 NW -
09.12.2018 12:00:00 5,4 4,4 8 4 37 20 NNW 0,0
09.12.2018 11:00:00 5,1 4,7 8 4 35 19 NNW 0,0
09.12.2018 10:00:00 4,9 4,8 5 3 35 19 NW 0,0
09.12.2018 09:00:00 4,9 4,6 4 2 22 12 NW 0,2
09.12.2018 08:00:00 4,5 4,2 8 4 39 21 WNW 3,0
09.12.2018 07:00:00 5,9 5,5 5 3 31 17 WNW -
09.12.2018 06:00:00 6,0 5,7 8 4 48 26 WNW 0,0
09.12.2018 05:00:00 6,1 5,8 9 5 35 19 NW 1,0
09.12.2018 04:00:00 6,1 5,8 8 4 44 24 WNW 2,0
09.12.2018 03:00:00 7,0 6,7 8 4 37 20 NNW 0,0
09.12.2018 02:00:00 7,2 7,1 11 6 67 36 NW 0,2
09.12.2018 01:00:00 8,0 7,9 11 6 59 32 WNW -
09.12.2018 00:00:00 8,0 7,9 13 7 67 36 WNW 2,0
08.12.2018 23:00:00 7,7 7,6 11 6 67 36 W 1,0
08.12.2018 22:00:00 7,2 6,9 15 8 74 40 WSW 1,0
08.12.2018 21:00:00 6,8 6,5 13 7 54 29 W 1,0
08.12.2018 20:00:00 6,6 6,3 15 8 59 32 W 0,8
08.12.2018 19:00:00 6,5 6,2 13 7 59 32 W -
08.12.2018 18:00:00 6,4 6,1 11 6 54 29 W 0,8
08.12.2018 17:00:00 6,2 5,9 8 4 35 19 W 0,8
08.12.2018 16:00:00 6,1 5,8 8 4 42 23 WNW 0,2
08.12.2018 15:00:00 5,9 5,6 5 3 34 18 WNW 0,4
08.12.2018 14:00:00 5,7 5,4 5 3 26 14 NNW 0,0
08.12.2018 13:00:00 5,5 5,2 5 3 29 16 WNW -
08.12.2018 12:00:00 5,3 5,0 8 4 34 18 WNW 0,2
08.12.2018 11:00:00 4,8 4,5 8 4 34 18 WNW 0,0
08.12.2018 10:00:00 4,5 4,2 8 4 48 26 WNW 0,0
08.12.2018 09:00:00 4,1 4,0 5 3 28 15 WNW 0,0
08.12.2018 08:00:00 3,8 3,5 8 4 35 19 W 0,0
08.12.2018 07:00:00 3,7 3,4 8 4 31 17 WNW -
08.12.2018 06:00:00 3,5 3,2 8 4 35 19 WNW 0,0
08.12.2018 05:00:00 3,5 3,2 8 4 44 24 WNW 0,0
08.12.2018 04:00:00 3,4 3,0 4 2 24 13 WNW 0,0
08.12.2018 03:00:00 3,4 3,0 5 3 29 16 WNW 0,0
08.12.2018 02:00:00 3,3 3,0 8 4 29 16 WNW 0,0
08.12.2018 01:00:00 3,4 3,0 4 2 28 15 NW -
08.12.2018 00:00:00 3,7 3,3 5 3 28 15 WNW 0,0
07.12.2018 23:00:00 3,9 3,3 5 3 21 11 WNW 0,0
07.12.2018 22:00:00 4,2 3,3 8 4 29 16 W 0,0
07.12.2018 21:00:00 4,8 3,9 5 3 31 17 WNW 0,0
07.12.2018 20:00:00 5,5 4,6 9 5 31 17 WNW 0,0
07.12.2018 19:00:00 6,6 6,2 4 2 34 18 WNW -
07.12.2018 18:00:00 7,2 6,8 9 5 57 31 WNW 2,0
07.12.2018 17:00:00 7,4 7,0 16 9 70 38 WSW 3,0
07.12.2018 16:00:00 7,8 6,4 18 10 63 34 WSW 0,6
07.12.2018 15:00:00 7,6 6,2 15 8 61 33 WSW 0,2
07.12.2018 14:00:00 7,7 6,5 15 8 52 28 WSW 0,0
07.12.2018 13:00:00 7,6 7,0 18 10 54 29 SW -
07.12.2018 12:00:00 7,1 7,0 13 7 52 28 WSW 0,0
07.12.2018 11:00:00 7,0 6,9 11 6 44 24 W 0,0
07.12.2018 10:00:00 7,1 7,0 9 5 42 23 W 0,0
07.12.2018 09:00:00 7,0 6,9 9 5 61 33 W 0,2
07.12.2018 08:00:00 7,2 7,1 9 5 39 21 W 0,2
07.12.2018 07:00:00 7,2 7,1 9 5 39 21 W -
07.12.2018 06:00:00 7,2 7,1 5 3 29 16 WNW 0,0
07.12.2018 05:00:00 7,3 7,2 5 3 37 20 WNW 0,0
07.12.2018 04:00:00 7,7 7,6 5 3 37 20 WNW 0,6
07.12.2018 03:00:00 7,8 7,7 8 4 28 15 W 0,0
07.12.2018 02:00:00 8,1 8,0 8 4 37 20 WNW 0,0
07.12.2018 01:00:00 8,2 8,1 5 3 28 15 WNW -
07.12.2018 00:00:00 8,5 8,4 4 2 29 16 NW 0,2
06.12.2018 23:00:00 8,6 8,3 4 2 24 13 NW 0,2
06.12.2018 22:00:00 8,7 8,4 4 2 29 16 NNW 0,0
06.12.2018 21:00:00 8,8 8,5 5 3 24 13 NW 0,2
06.12.2018 20:00:00 9,0 8,7 4 2 29 16 NW 0,0
06.12.2018 19:00:00 9,3 9,0 4 2 21 11 NW -
06.12.2018 18:00:00 9,4 9,1 5 3 24 13 NW 0,2
06.12.2018 17:00:00 9,6 9,3 5 3 29 16 NW 0,4
06.12.2018 16:00:00 9,7 9,4 4 2 18 10 NW 0,0
06.12.2018 15:00:00 10,0 9,7 4 2 18 10 NW 0,2
06.12.2018 14:00:00 10,3 10,0 2 1 15 8 WNW 0,4
06.12.2018 13:00:00 10,0 9,7 4 2 13 7 WNW -
06.12.2018 12:00:00 10,0 9,7 4 2 15 8 WNW 0,2
06.12.2018 11:00:00 9,8 9,5 4 2 13 7 NNW 0,2
06.12.2018 10:00:00 9,8 9,5 2 1 11 6 WNW 1,0
06.12.2018 09:00:00 9,4 9,1 4 2 18 10 W 0,4
06.12.2018 08:00:00 9,2 8,9 4 2 16 9 NW 0,8
06.12.2018 07:00:00 9,0 8,7 4 2 22 12 W -
06.12.2018 06:00:00 8,7 8,4 4 2 29 16 W 0,4
06.12.2018 05:00:00 8,5 8,2 8 4 37 20 WNW 2,0
06.12.2018 04:00:00 8,5 8,2 9 5 48 26 W 0,6
06.12.2018 03:00:00 8,4 8,1 8 4 39 21 W 0,6
06.12.2018 02:00:00 8,4 8,1 5 3 37 20 WNW 0,0

tt = Température de l'air
td = dewpoint
ff = Vitesse du vent
fx = gusts
dd = Direction du vent
rr = Quantités de précipitations

stations d'obs. à proximité